Terminal Aerodrome Forecast
Issued by NWS Goodland, KS

Home | Current Version | Previous Version | Text Only | Print | Product List | Glossary On
Versions: 1 2 3 4 5 6 7 8 9 10 11 12 13 14
000
FTUS43 KGLD 280537
TAFGLD
TAF
KGLD 280537Z 2806/2906 16011KT P6SM SKC
     FM281100 16008KT P6SM FEW002
     FM281500 16020G30KT P6SM SKC
     FM290300 15014KT P6SM SCT060 SCT150=

USA.gov is the U.S. government's official web portal to all federal, state and local government web resources and services.